Terminal Aerodrome Forecast
Issued by NWS

Current Version | Previous Version | Text Only | Print | Product List | Glossary On
Versions: 1 2 3 4 5 6 7 8 9 10 11 12 13
000
FTUS43 KOAX 231120
TAFSNY
TAF
KSNY 231120Z 2312/2412 35025G35KT P6SM BKN050
     FM231800 34030G42KT P6SM SCT050 SCT250
     FM240100 33015G25KT P6SM SCT250=

USA.gov is the U.S. government's official web portal to all federal, state and local government web resources and services.